createdAt,value
2018-09-26T00:01:57.356Z,6.26
2018-09-26T00:04:28.683Z,6.09
2018-09-26T00:06:57.581Z,5.97
2018-09-26T00:09:26.159Z,5.83
2018-09-26T00:11:54.304Z,5.87
2018-09-26T00:14:22.526Z,5.93
2018-09-26T00:16:50.895Z,6.08
2018-09-26T00:19:19.119Z,6.00
2018-09-26T00:21:47.307Z,5.86
2018-09-26T00:24:15.505Z,5.84
2018-09-26T00:26:43.796Z,5.85
2018-09-26T00:29:11.934Z,5.68
2018-09-26T00:31:40.179Z,5.62
2018-09-26T00:34:08.419Z,5.66
2018-09-26T00:36:36.612Z,5.62
2018-09-26T00:39:06.432Z,5.58
2018-09-26T00:41:34.609Z,5.48
2018-09-26T00:44:02.960Z,5.56
2018-09-26T00:46:31.164Z,5.54
2018-09-26T00:48:59.427Z,5.52
2018-09-26T00:51:27.778Z,5.50
2018-09-26T00:53:55.912Z,5.51
2018-09-26T00:56:24.230Z,5.52
2018-09-26T00:58:52.463Z,5.59
2018-09-26T01:01:20.763Z,5.48
2018-09-26T01:03:49.067Z,5.44
2018-09-26T01:06:17.298Z,5.37
2018-09-26T01:08:45.630Z,5.21
2018-09-26T01:11:13.898Z,4.98
2018-09-26T01:13:42.172Z,4.89
2018-09-26T01:16:10.442Z,4.78
2018-09-26T01:18:38.628Z,4.66
2018-09-26T01:21:07.775Z,4.54
2018-09-26T01:23:36.081Z,4.41
2018-09-26T01:26:04.428Z,4.33
2018-09-26T01:28:32.651Z,4.22
2018-09-26T01:31:01.115Z,4.18
2018-09-26T01:33:29.309Z,4.43
2018-09-26T01:35:57.591Z,4.37
2018-09-26T01:38:25.871Z,4.24
2018-09-26T01:40:54.132Z,4.21
2018-09-26T01:43:22.358Z,4.11
2018-09-26T01:45:51.126Z,4.09
2018-09-26T01:48:19.355Z,4.00
2018-09-26T01:50:47.736Z,3.93
2018-09-26T01:53:15.968Z,3.87
2018-09-26T01:55:44.242Z,3.73
2018-09-26T01:58:12.492Z,3.71
2018-09-26T02:00:40.672Z,3.80
2018-09-26T02:03:08.857Z,3.65
2018-09-26T02:05:37.033Z,3.53
2018-09-26T02:08:05.248Z,3.53
2018-09-26T02:10:33.409Z,3.53
2018-09-26T02:13:01.643Z,3.51
2018-09-26T02:15:29.850Z,3.47
2018-09-26T02:17:58.216Z,3.40
2018-09-26T02:20:26.439Z,3.47
2018-09-26T02:22:54.648Z,3.50
2018-09-26T02:25:22.907Z,3.38
2018-09-26T02:27:51.155Z,3.45
2018-09-26T02:30:19.407Z,3.40
2018-09-26T02:32:47.770Z,3.39
2018-09-26T02:35:16.448Z,3.41
2018-09-26T02:37:44.884Z,3.34
2018-09-26T02:40:14.196Z,3.35
2018-09-26T02:42:42.392Z,3.32
2018-09-26T02:45:10.685Z,3.32
2018-09-26T02:47:38.857Z,3.37
2018-09-26T02:50:07.036Z,3.42
2018-09-26T02:52:35.307Z,3.32
2018-09-26T02:55:03.520Z,3.29
2018-09-26T02:57:31.827Z,3.33
2018-09-26T03:00:00.048Z,3.70
2018-09-26T03:02:28.751Z,3.87
2018-09-26T03:04:56.977Z,3.84
2018-09-26T03:07:25.311Z,3.38
2018-09-26T03:09:53.578Z,3.11
2018-09-26T03:12:21.763Z,3.00
2018-09-26T03:14:49.966Z,3.03
2018-09-26T03:17:18.664Z,3.04
2018-09-26T03:19:46.879Z,3.04
2018-09-26T03:22:15.134Z,2.92
2018-09-26T03:24:43.644Z,2.85
2018-09-26T03:27:11.937Z,2.71
2018-09-26T03:29:40.055Z,2.60
2018-09-26T03:32:08.462Z,2.45
2018-09-26T03:34:36.792Z,2.52
2018-09-26T03:37:05.707Z,2.62
2018-09-26T03:39:33.891Z,2.57
2018-09-26T03:42:02.198Z,2.60
2018-09-26T03:44:30.669Z,2.72
2018-09-26T03:46:58.978Z,2.80
2018-09-26T03:49:27.351Z,2.56
2018-09-26T03:51:55.636Z,2.57
2018-09-26T03:54:23.966Z,2.56
2018-09-26T03:56:52.332Z,2.72
2018-09-26T03:59:20.623Z,2.78
2018-09-26T04:01:48.975Z,2.72
2018-09-26T04:04:17.188Z,2.78
2018-09-26T04:06:45.441Z,3.08
2018-09-26T04:09:13.620Z,2.98
2018-09-26T04:11:41.852Z,2.78
2018-09-26T04:14:10.117Z,2.75
2018-09-26T04:16:38.411Z,2.68
2018-09-26T04:19:06.739Z,2.64
2018-09-26T04:21:34.955Z,2.61
2018-09-26T04:24:03.175Z,2.65
2018-09-26T04:26:31.554Z,2.72
2018-09-26T04:28:59.725Z,2.73
2018-09-26T04:31:27.923Z,2.76
2018-09-26T04:33:56.178Z,2.82
2018-09-26T04:36:24.343Z,2.87
2018-09-26T04:38:52.939Z,2.86
2018-09-26T04:41:20.985Z,2.88
2018-09-26T04:43:49.196Z,2.89
2018-09-26T04:46:17.489Z,3.03
2018-09-26T04:48:45.750Z,2.88
2018-09-26T04:51:14.020Z,2.84
2018-09-26T04:53:42.224Z,2.75
2018-09-26T04:56:10.419Z,2.82
2018-09-26T04:58:38.621Z,2.81
2018-09-26T05:01:06.773Z,2.97
2018-09-26T05:03:34.914Z,3.16
2018-09-26T05:06:03.183Z,3.21
2018-09-26T05:08:31.415Z,3.22
2018-09-26T05:10:59.642Z,2.97
2018-09-26T05:13:27.862Z,2.75
2018-09-26T05:15:56.306Z,2.44
2018-09-26T05:18:24.573Z,2.61
2018-09-26T05:20:52.818Z,2.45
2018-09-26T05:23:21.034Z,2.31
2018-09-26T05:25:49.157Z,2.29
2018-09-26T05:28:17.305Z,2.35
2018-09-26T05:30:45.535Z,2.22
2018-09-26T05:33:13.785Z,2.08
2018-09-26T05:35:42.043Z,1.95
2018-09-26T05:38:10.155Z,1.94
2018-09-26T05:40:38.434Z,2.07
2018-09-26T05:43:06.679Z,2.07
2018-09-26T05:45:34.803Z,2.29
2018-09-26T05:48:03.115Z,2.48
2018-09-26T05:50:31.353Z,2.52
2018-09-26T05:52:59.506Z,2.53
2018-09-26T05:55:27.732Z,2.51
2018-09-26T05:57:55.975Z,2.57
2018-09-26T06:00:24.202Z,2.73
2018-09-26T06:02:52.483Z,3.01
2018-09-26T06:05:20.747Z,3.37
2018-09-26T06:07:48.907Z,3.60
2018-09-26T06:10:17.307Z,3.69
2018-09-26T06:12:45.527Z,4.04
2018-09-26T06:15:13.759Z,4.21
2018-09-26T06:17:42.006Z,4.20
2018-09-26T06:20:10.220Z,4.30
2018-09-26T06:22:38.529Z,4.35
2018-09-26T06:25:06.800Z,4.29
2018-09-26T06:27:35.172Z,4.28
2018-09-26T06:30:03.379Z,4.34
2018-09-26T06:32:32.040Z,4.46
2018-09-26T06:35:00.359Z,4.54
2018-09-26T06:37:28.620Z,4.52
2018-09-26T06:39:56.773Z,4.63
2018-09-26T06:42:24.990Z,4.76
2018-09-26T06:44:53.256Z,4.94
2018-09-26T06:47:21.550Z,5.13
2018-09-26T06:49:49.775Z,5.43
2018-09-26T06:52:18.015Z,5.59
2018-09-26T06:54:46.238Z,5.84
2018-09-26T06:57:14.384Z,5.98
2018-09-26T06:59:42.679Z,6.01
2018-09-26T07:02:11.486Z,6.09
2018-09-26T07:04:39.759Z,6.16
2018-09-26T07:07:07.975Z,6.01
2018-09-26T07:09:36.233Z,5.85
2018-09-26T07:12:04.523Z,5.91
2018-09-26T07:14:32.782Z,6.04
2018-09-26T07:17:01.730Z,5.87
2018-09-26T07:19:29.932Z,6.06
2018-09-26T07:21:58.198Z,6.41
2018-09-26T07:24:26.403Z,6.73
2018-09-26T07:26:54.562Z,7.08
2018-09-26T07:29:22.955Z,7.24
2018-09-26T07:31:51.276Z,7.27
2018-09-26T07:34:23.679Z,7.27
2018-09-26T07:36:52.255Z,7.31
2018-09-26T07:39:20.506Z,7.50
2018-09-26T07:41:48.743Z,7.19
2018-09-26T07:44:17.011Z,7.19
2018-09-26T07:46:45.180Z,7.37
2018-09-26T07:49:13.355Z,7.65
2018-09-26T07:51:41.607Z,7.68
2018-09-26T07:54:09.954Z,8.07
2018-09-26T07:56:38.278Z,8.36
2018-09-26T07:59:07.234Z,8.62
2018-09-26T08:01:35.524Z,8.92
2018-09-26T08:04:03.691Z,9.28
2018-09-26T08:06:31.978Z,9.47
2018-09-26T08:09:00.173Z,9.44
2018-09-26T08:11:28.519Z,9.56
2018-09-26T08:13:56.655Z,9.78
2018-09-26T08:16:24.925Z,10.08
2018-09-26T08:18:53.191Z,10.31
2018-09-26T08:21:21.494Z,10.24
2018-09-26T08:23:49.747Z,9.79
2018-09-26T08:26:18.011Z,9.76
2018-09-26T08:28:46.444Z,9.56
2018-09-26T08:31:14.663Z,9.29
2018-09-26T08:33:42.883Z,9.18
2018-09-26T08:36:11.078Z,9.23
2018-09-26T08:38:39.405Z,9.16
2018-09-26T08:41:07.598Z,9.29
2018-09-26T08:43:35.975Z,9.22
2018-09-26T08:46:04.254Z,9.14
2018-09-26T08:48:32.523Z,9.26
2018-09-26T08:51:00.827Z,9.33
2018-09-26T08:53:29.027Z,9.42
2018-09-26T08:55:57.199Z,9.74
2018-09-26T08:58:25.432Z,9.91
2018-09-26T09:00:54.647Z,10.17
2018-09-26T09:03:22.897Z,10.20
2018-09-26T09:05:51.953Z,10.12
2018-09-26T09:08:20.460Z,10.28
2018-09-26T09:10:48.741Z,10.35
2018-09-26T09:13:17.016Z,10.51
2018-09-26T09:15:45.231Z,10.72
2018-09-26T09:18:13.475Z,10.76
2018-09-26T09:20:41.792Z,11.03
2018-09-26T09:23:10.046Z,11.12
2018-09-26T09:25:38.220Z,11.30
2018-09-26T09:28:06.495Z,11.47
2018-09-26T09:30:34.739Z,11.72
2018-09-26T09:33:02.901Z,11.76
2018-09-26T09:35:31.062Z,11.96
2018-09-26T09:37:59.302Z,11.90
2018-09-26T09:40:27.626Z,11.92
2018-09-26T09:42:55.796Z,11.80
2018-09-26T09:45:23.971Z,12.03
2018-09-26T09:47:52.140Z,12.51
2018-09-26T09:50:20.458Z,12.72
2018-09-26T09:52:48.528Z,12.98
2018-09-26T09:55:16.756Z,12.84
2018-09-26T09:57:45.540Z,13.06
2018-09-26T10:00:14.095Z,13.28
2018-09-26T10:02:42.373Z,13.36
2018-09-26T10:05:10.647Z,13.23
2018-09-26T10:07:38.918Z,13.38
2018-09-26T10:10:07.240Z,13.54
2018-09-26T10:12:35.623Z,13.84
2018-09-26T10:15:03.810Z,14.10
2018-09-26T10:17:32.094Z,14.19
2018-09-26T10:20:00.278Z,14.26
2018-09-26T10:22:28.525Z,14.38
2018-09-26T10:24:56.826Z,14.77
2018-09-26T10:27:25.034Z,14.93
2018-09-26T10:29:53.267Z,14.98
2018-09-26T10:32:21.643Z,14.82
2018-09-26T10:34:49.809Z,14.97
2018-09-26T10:37:17.939Z,14.63
2018-09-26T10:39:46.164Z,14.99
2018-09-26T10:42:14.494Z,15.06
2018-09-26T10:44:42.745Z,15.22
2018-09-26T10:47:10.935Z,15.20
2018-09-26T10:49:39.167Z,15.37
2018-09-26T10:52:07.383Z,15.20
2018-09-26T10:54:35.567Z,15.32
2018-09-26T10:57:03.798Z,15.43
2018-09-26T10:59:32.071Z,15.40
2018-09-26T11:02:00.418Z,15.04
2018-09-26T11:04:28.540Z,15.34
2018-09-26T11:06:56.807Z,15.28
2018-09-26T11:09:24.975Z,15.49
2018-09-26T11:11:53.198Z,15.56
2018-09-26T11:14:21.410Z,15.78
2018-09-26T11:16:49.675Z,15.81
2018-09-26T11:19:17.946Z,15.85
2018-09-26T11:21:46.129Z,15.90
2018-09-26T11:24:14.428Z,16.18
2018-09-26T11:26:42.849Z,16.26
2018-09-26T11:29:10.991Z,16.49
2018-09-26T11:31:39.216Z,16.63
2018-09-26T11:34:07.710Z,16.92
2018-09-26T11:36:35.791Z,17.09
2018-09-26T11:39:05.222Z,16.73
2018-09-26T11:41:33.564Z,16.42
2018-09-26T11:44:01.812Z,16.55
2018-09-26T11:46:30.131Z,16.47
2018-09-26T11:49:05.100Z,16.73
2018-09-26T11:51:33.275Z,16.81
2018-09-26T11:54:01.553Z,16.99
2018-09-26T11:56:30.328Z,17.03
2018-09-26T11:58:58.515Z,16.70
2018-09-26T12:01:26.763Z,16.81
2018-09-26T12:03:54.956Z,16.98
2018-09-26T12:06:23.321Z,17.06
2018-09-26T12:08:51.585Z,17.02
2018-09-26T12:11:19.739Z,16.94
2018-09-26T12:13:47.974Z,17.11
2018-09-26T12:16:16.258Z,17.25
2018-09-26T12:18:44.481Z,17.20
2018-09-26T12:21:12.712Z,17.46
2018-09-26T12:23:40.951Z,17.41
2018-09-26T12:26:09.200Z,17.07
2018-09-26T12:28:37.409Z,17.31
2018-09-26T12:31:05.596Z,17.45
2018-09-26T12:33:33.858Z,17.66
2018-09-26T12:36:02.105Z,17.86
2018-09-26T12:38:30.382Z,17.86
2018-09-26T12:40:58.688Z,18.19
2018-09-26T12:43:26.863Z,18.12
2018-09-26T12:45:55.135Z,18.06
2018-09-26T12:48:23.387Z,17.99
2018-09-26T12:50:51.584Z,18.39
2018-09-26T12:53:19.921Z,18.31
2018-09-26T12:55:48.203Z,18.37
2018-09-26T12:58:16.464Z,18.22
2018-09-26T13:00:44.742Z,18.19
2018-09-26T13:03:12.931Z,18.19
2018-09-26T13:05:41.128Z,18.25
2018-09-26T13:08:09.475Z,18.54
2018-09-26T13:10:37.692Z,18.67
2018-09-26T13:13:05.987Z,19.07
2018-09-26T13:15:34.160Z,19.28
2018-09-26T13:18:02.456Z,19.41
2018-09-26T13:20:30.696Z,19.12
2018-09-26T13:22:58.994Z,18.80
2018-09-26T13:25:27.287Z,18.99
2018-09-26T13:27:55.507Z,18.79
2018-09-26T13:30:23.913Z,18.70
2018-09-26T13:32:52.059Z,18.75
2018-09-26T13:35:20.337Z,18.83
2018-09-26T13:37:48.615Z,19.22
2018-09-26T13:40:16.797Z,19.37
2018-09-26T13:42:45.063Z,19.24
2018-09-26T13:45:13.254Z,19.40
2018-09-26T13:47:41.523Z,19.66
2018-09-26T13:50:09.818Z,19.09
2018-09-26T13:52:38.063Z,19.19
2018-09-26T13:55:06.265Z,19.35
2018-09-26T13:57:34.536Z,19.43
2018-09-26T14:00:02.851Z,19.55
2018-09-26T14:02:38.108Z,19.28
2018-09-26T14:05:06.467Z,19.34
2018-09-26T14:07:34.661Z,19.46
2018-09-26T14:10:02.947Z,19.53
2018-09-26T14:12:31.287Z,19.41
2018-09-26T14:14:59.550Z,19.38
2018-09-26T14:17:28.050Z,19.37
2018-09-26T14:20:12.942Z,19.46
2018-09-26T14:22:41.250Z,19.64
2018-09-26T14:25:09.530Z,19.56
2018-09-26T14:27:37.838Z,19.73
2018-09-26T14:30:06.277Z,19.96
2018-09-26T14:32:34.615Z,19.99
2018-09-26T14:35:02.985Z,19.73
2018-09-26T14:37:31.319Z,19.66
2018-09-26T14:39:59.791Z,19.69
2018-09-26T14:42:28.068Z,19.82
2018-09-26T14:44:56.407Z,19.40
2018-09-26T14:47:24.830Z,19.34
2018-09-26T14:49:53.041Z,19.43
2018-09-26T14:52:21.327Z,19.68
2018-09-26T14:54:49.604Z,19.82
2018-09-26T14:57:17.882Z,19.75
2018-09-26T14:59:46.215Z,19.69
2018-09-26T15:02:14.603Z,19.64
2018-09-26T15:04:42.813Z,19.57
2018-09-26T15:07:11.179Z,19.58
2018-09-26T15:09:39.579Z,19.36
2018-09-26T15:12:08.065Z,18.89
2018-09-26T15:14:36.643Z,18.68
2018-09-26T15:17:04.975Z,18.58
2018-09-26T15:19:33.355Z,18.77
2018-09-26T15:22:01.760Z,18.74
2018-09-26T15:24:30.084Z,18.49
2018-09-26T15:27:05.241Z,18.57
2018-09-26T15:29:33.804Z,18.43
2018-09-26T15:32:02.059Z,18.54
2018-09-26T15:34:30.372Z,18.62
2018-09-26T15:36:58.703Z,18.64
2018-09-26T15:39:27.178Z,18.64
2018-09-26T15:41:55.472Z,18.64
2018-09-26T15:44:24.009Z,18.61
2018-09-26T15:46:52.303Z,18.44
2018-09-26T15:49:20.827Z,18.44
2018-09-26T15:51:49.163Z,18.30
2018-09-26T15:54:17.505Z,18.27
2018-09-26T15:56:46.647Z,18.26
2018-09-26T15:59:15.119Z,18.24
2018-09-26T16:01:43.500Z,18.17
2018-09-26T16:04:23.746Z,18.11
2018-09-26T16:06:51.927Z,18.13
2018-09-26T16:09:20.183Z,18.02
2018-09-26T16:11:48.416Z,17.93
2018-09-26T16:14:16.798Z,17.95
2018-09-26T16:16:45.017Z,17.93
2018-09-26T16:19:13.353Z,17.81
2018-09-26T16:21:41.544Z,17.83
2018-09-26T16:24:09.868Z,17.68
2018-09-26T16:26:38.160Z,17.59
2018-09-26T16:29:07.153Z,17.50
2018-09-26T16:31:35.463Z,17.45
2018-09-26T16:34:03.808Z,17.47
2018-09-26T16:36:31.988Z,17.37
2018-09-26T16:39:00.248Z,17.24
2018-09-26T16:41:28.439Z,17.02
2018-09-26T16:43:56.796Z,17.10
2018-09-26T16:46:25.137Z,16.84
2018-09-26T16:48:57.671Z,16.72
2018-09-26T16:51:29.562Z,16.47
2018-09-26T16:54:01.987Z,16.48
2018-09-26T16:57:09.940Z,16.35
2018-09-26T16:59:41.995Z,16.23
2018-09-26T17:02:14.885Z,16.06
2018-09-26T17:04:47.531Z,15.91
2018-09-26T17:07:20.068Z,15.68
2018-09-26T17:09:52.699Z,15.54
2018-09-26T17:12:35.503Z,15.41
2018-09-26T17:15:07.989Z,15.25
2018-09-26T17:17:40.508Z,15.20
2018-09-26T17:20:23.031Z,15.04
2018-09-26T17:22:55.055Z,14.86
2018-09-26T17:25:25.334Z,14.70
2018-09-26T17:28:41.400Z,14.52
2018-09-26T17:31:13.493Z,14.32
2018-09-26T17:33:46.451Z,14.20
2018-09-26T17:36:19.347Z,14.07
2018-09-26T17:39:07.221Z,13.94
2018-09-26T17:41:38.751Z,13.65
2018-09-26T17:44:11.356Z,13.62
2018-09-26T17:46:43.896Z,13.57
2018-09-26T17:49:16.011Z,13.47
2018-09-26T17:51:49.652Z,13.37
2018-09-26T17:54:21.902Z,13.30
2018-09-26T17:56:54.657Z,13.17
2018-09-26T17:59:33.045Z,12.99
2018-09-26T18:02:10.092Z,12.92
2018-09-26T18:04:42.544Z,12.84
2018-09-26T18:07:15.102Z,12.80
2018-09-26T18:09:47.770Z,12.77
2018-09-26T18:12:21.012Z,12.70
2018-09-26T18:15:02.288Z,12.71
2018-09-26T18:17:43.650Z,12.66
2018-09-26T18:20:15.860Z,12.56
2018-09-26T18:22:50.102Z,12.44
2018-09-26T22:23:38.366Z,8.00
2018-09-26T22:26:11.175Z,7.95
2018-09-26T22:28:44.845Z,7.95
2018-09-26T22:31:16.896Z,7.84
2018-09-26T22:33:48.820Z,7.83
2018-09-26T22:36:25.663Z,7.84
2018-09-26T22:38:58.659Z,7.76
2018-09-26T22:41:34.961Z,7.78
2018-09-26T22:44:07.349Z,7.73
2018-09-26T22:46:39.839Z,7.67
2018-09-26T22:49:11.594Z,7.49
2018-09-26T22:51:43.019Z,7.37
2018-09-26T22:54:14.576Z,7.37
2018-09-26T22:56:45.988Z,7.31
2018-09-26T22:59:16.585Z,7.41
2018-09-26T23:01:46.891Z,7.50
2018-09-26T23:04:23.976Z,7.58
2018-09-26T23:06:56.459Z,7.67
2018-09-26T23:09:28.427Z,7.81
2018-09-26T23:11:56.881Z,7.67
2018-09-26T23:14:25.104Z,7.52
2018-09-26T23:16:53.419Z,7.27
2018-09-26T23:19:21.727Z,7.11
2018-09-26T23:21:50.069Z,7.12
2018-09-26T23:24:18.331Z,7.15
2018-09-26T23:26:46.673Z,7.19
2018-09-26T23:29:14.964Z,7.15
2018-09-26T23:31:43.239Z,7.10
2018-09-26T23:34:11.448Z,7.03
2018-09-26T23:36:39.675Z,7.14
2018-09-26T23:39:09.516Z,7.12
2018-09-26T23:41:38.139Z,7.27
2018-09-26T23:44:06.624Z,7.20
2018-09-26T23:46:35.467Z,7.05
2018-09-26T23:49:03.800Z,6.89
2018-09-26T23:51:32.000Z,6.81
2018-09-26T23:54:00.794Z,6.77
2018-09-26T23:56:29.422Z,6.78
2018-09-26T23:58:58.097Z,6.82
